sensor_id;sensor_type;location;lat;lon;timestamp;pressure;altitude;pressure_sealevel;temperature;humidity
56182;BME280;51963;46.052;14.544;2023-05-19T00:01:30;98710.19;;;11.83;100.00
56182;BME280;51963;46.052;14.544;2023-05-19T00:03:58;98723.53;;;11.89;100.00
56182;BME280;51963;46.052;14.544;2023-05-19T00:06:28;98709.38;;;11.82;100.00
56182;BME280;51963;46.052;14.544;2023-05-19T00:09:00;98696.06;;;11.76;100.00
56182;BME280;51963;46.052;14.544;2023-05-19T00:11:27;98709.50;;;11.74;100.00
56182;BME280;51963;46.052;14.544;2023-05-19T00:13:54;98718.50;;;11.80;100.00
56182;BME280;51963;46.052;14.544;2023-05-19T00:16:21;98719.53;;;11.79;100.00
56182;BME280;51963;46.052;14.544;2023-05-19T00:18:47;98717.59;;;11.87;100.00
56182;BME280;51963;46.052;14.544;2023-05-19T00:21:14;98719.22;;;11.88;100.00
56182;BME280;51963;46.052;14.544;2023-05-19T00:23:40;98718.59;;;11.86;100.00
56182;BME280;51963;46.052;14.544;2023-05-19T00:26:08;98718.78;;;11.85;100.00
56182;BME280;51963;46.052;14.544;2023-05-19T00:28:34;98716.75;;;11.87;100.00
56182;BME280;51963;46.052;14.544;2023-05-19T00:31:00;98710.66;;;11.86;100.00
56182;BME280;51963;46.052;14.544;2023-05-19T00:33:26;98707.09;;;11.79;100.00
56182;BME280;51963;46.052;14.544;2023-05-19T00:35:52;98706.47;;;11.77;100.00
56182;BME280;51963;46.052;14.544;2023-05-19T00:38:18;98691.72;;;11.68;100.00
56182;BME280;51963;46.052;14.544;2023-05-19T00:40:44;98699.91;;;11.73;100.00
56182;BME280;51963;46.052;14.544;2023-05-19T00:43:11;98688.78;;;11.63;100.00
56182;BME280;51963;46.052;14.544;2023-05-19T00:45:37;98707.22;;;11.71;100.00
56182;BME280;51963;46.052;14.544;2023-05-19T00:48:03;98688.91;;;11.54;100.00
56182;BME280;51963;46.052;14.544;2023-05-19T00:50:30;98713.53;;;11.70;100.00
56182;BME280;51963;46.052;14.544;2023-05-19T00:52:56;98709.66;;;11.72;100.00
56182;BME280;51963;46.052;14.544;2023-05-19T00:55:25;98705.22;;;11.73;100.00
56182;BME280;51963;46.052;14.544;2023-05-19T00:57:53;98717.06;;;11.77;100.00
56182;BME280;51963;46.052;14.544;2023-05-19T01:00:20;98718.97;;;11.83;100.00
56182;BME280;51963;46.052;14.544;2023-05-19T01:02:45;98716.31;;;11.83;100.00
56182;BME280;51963;46.052;14.544;2023-05-19T01:05:11;98715.94;;;11.86;100.00
56182;BME280;51963;46.052;14.544;2023-05-19T01:07:38;98704.63;;;11.78;100.00
56182;BME280;51963;46.052;14.544;2023-05-19T01:10:04;98711.03;;;11.83;100.00
56182;BME280;51963;46.052;14.544;2023-05-19T01:12:30;98708.19;;;11.85;100.00
56182;BME280;51963;46.052;14.544;2023-05-19T01:14:57;98712.03;;;11.82;100.00
56182;BME280;51963;46.052;14.544;2023-05-19T01:20:43;98710.56;;;11.80;100.00
56182;BME280;51963;46.052;14.544;2023-05-19T01:23:27;98711.41;;;11.80;100.00
56182;BME280;51963;46.052;14.544;2023-05-19T01:31:27;98712.22;;;11.81;100.00
56182;BME280;51963;46.052;14.544;2023-05-19T01:33:54;98706.09;;;11.80;100.00
56182;BME280;51963;46.052;14.544;2023-05-19T01:36:22;98717.88;;;11.78;100.00
56182;BME280;51963;46.052;14.544;2023-05-19T01:38:51;98716.69;;;11.80;100.00
56182;BME280;51963;46.052;14.544;2023-05-19T01:41:19;98719.34;;;11.80;100.00
56182;BME280;51963;46.052;14.544;2023-05-19T01:43:46;98720.63;;;11.84;100.00
56182;BME280;51963;46.052;14.544;2023-05-19T01:46:13;98719.59;;;11.85;100.00
56182;BME280;51963;46.052;14.544;2023-05-19T01:48:42;98722.88;;;11.87;100.00
56182;BME280;51963;46.052;14.544;2023-05-19T01:51:08;98717.88;;;11.78;100.00
56182;BME280;51963;46.052;14.544;2023-05-19T01:53:34;98712.25;;;11.66;100.00
56182;BME280;51963;46.052;14.544;2023-05-19T01:56:00;98714.31;;;11.85;100.00
56182;BME280;51963;46.052;14.544;2023-05-19T01:58:45;98716.31;;;11.83;100.00
56182;BME280;51963;46.052;14.544;2023-05-19T02:01:32;98713.78;;;11.75;100.00
56182;BME280;51963;46.052;14.544;2023-05-19T02:06:56;98703.47;;;11.65;100.00
56182;BME280;51963;46.052;14.544;2023-05-19T02:09:31;98706.31;;;11.64;100.00
56182;BME280;51963;46.052;14.544;2023-05-19T02:14:40;98703.78;;;11.55;100.00
56182;BME280;51963;46.052;14.544;2023-05-19T02:17:10;98707.44;;;11.54;100.00
56182;BME280;51963;46.052;14.544;2023-05-19T02:19:38;98703.69;;;11.49;100.00
56182;BME280;51963;46.052;14.544;2023-05-19T02:22:06;98706.16;;;11.50;100.00
56182;BME280;51963;46.052;14.544;2023-05-19T02:24:32;98706.81;;;11.52;100.00
56182;BME280;51963;46.052;14.544;2023-05-19T02:26:58;98699.59;;;11.46;100.00
56182;BME280;51963;46.052;14.544;2023-05-19T02:29:24;98685.09;;;11.42;100.00
56182;BME280;51963;46.052;14.544;2023-05-19T02:31:50;98698.03;;;11.52;100.00
56182;BME280;51963;46.052;14.544;2023-05-19T02:34:17;98689.28;;;11.51;100.00
56182;BME280;51963;46.052;14.544;2023-05-19T02:36:43;98698.50;;;11.55;100.00
56182;BME280;51963;46.052;14.544;2023-05-19T02:39:09;98695.13;;;11.47;100.00
56182;BME280;51963;46.052;14.544;2023-05-19T02:41:38;98687.28;;;11.38;100.00
56182;BME280;51963;46.052;14.544;2023-05-19T02:44:04;98705.72;;;11.47;100.00
56182;BME280;51963;46.052;14.544;2023-05-19T02:46:30;98692.66;;;11.45;100.00
56182;BME280;51963;46.052;14.544;2023-05-19T02:48:56;98695.75;;;11.49;100.00
56182;BME280;51963;46.052;14.544;2023-05-19T02:51:21;98695.59;;;11.50;100.00
56182;BME280;51963;46.052;14.544;2023-05-19T02:53:48;98696.84;;;11.54;100.00
56182;BME280;51963;46.052;14.544;2023-05-19T02:56:14;98689.00;;;11.46;100.00
56182;BME280;51963;46.052;14.544;2023-05-19T02:58:40;98698.41;;;11.49;100.00
56182;BME280;51963;46.052;14.544;2023-05-19T03:01:08;98685.72;;;11.44;100.00
56182;BME280;51963;46.052;14.544;2023-05-19T03:03:34;98683.34;;;11.49;100.00
56182;BME280;51963;46.052;14.544;2023-05-19T03:06:00;98680.97;;;11.54;100.00
56182;BME280;51963;46.052;14.544;2023-05-19T03:08:29;98681.78;;;11.55;100.00
56182;BME280;51963;46.052;14.544;2023-05-19T03:10:55;98686.06;;;11.56;100.00
56182;BME280;51963;46.052;14.544;2023-05-19T03:13:21;98693.25;;;11.62;100.00
56182;BME280;51963;46.052;14.544;2023-05-19T03:15:49;98688.22;;;11.67;100.00
56182;BME280;51963;46.052;14.544;2023-05-19T03:18:15;98686.28;;;11.76;100.00
56182;BME280;51963;46.052;14.544;2023-05-19T03:20:41;98695.94;;;11.84;100.00
56182;BME280;51963;46.052;14.544;2023-05-19T03:23:09;98665.72;;;11.56;100.00
56182;BME280;51963;46.052;14.544;2023-05-19T03:25:35;98694.63;;;11.73;100.00
56182;BME280;51963;46.052;14.544;2023-05-19T03:28:01;98704.13;;;11.67;100.00
56182;BME280;51963;46.052;14.544;2023-05-19T03:30:27;98703.03;;;11.62;100.00
56182;BME280;51963;46.052;14.544;2023-05-19T03:33:08;98698.75;;;11.61;100.00
56182;BME280;51963;46.052;14.544;2023-05-19T03:35:34;98695.66;;;11.57;100.00
56182;BME280;51963;46.052;14.544;2023-05-19T03:38:00;98670.38;;;11.39;100.00
56182;BME280;51963;46.052;14.544;2023-05-19T03:40:26;98700.88;;;11.50;100.00
56182;BME280;51963;46.052;14.544;2023-05-19T03:42:58;98700.56;;;11.60;100.00
56182;BME280;51963;46.052;14.544;2023-05-19T03:45:26;98702.59;;;11.58;100.00
56182;BME280;51963;46.052;14.544;2023-05-19T03:47:52;98698.03;;;11.52;100.00
56182;BME280;51963;46.052;14.544;2023-05-19T03:50:53;98690.66;;;11.47;100.00
56182;BME280;51963;46.052;14.544;2023-05-19T03:53:24;98703.16;;;11.53;100.00
56182;BME280;51963;46.052;14.544;2023-05-19T03:55:52;98703.16;;;11.53;100.00
56182;BME280;51963;46.052;14.544;2023-05-19T03:58:17;98702.59;;;11.58;100.00
56182;BME280;51963;46.052;14.544;2023-05-19T04:00:43;98710.88;;;11.70;100.00
56182;BME280;51963;46.052;14.544;2023-05-19T04:03:09;98704.31;;;11.66;100.00
56182;BME280;51963;46.052;14.544;2023-05-19T04:05:34;98700.41;;;11.62;100.00
56182;BME280;51963;46.052;14.544;2023-05-19T04:08:00;98701.94;;;11.56;100.00
56182;BME280;51963;46.052;14.544;2023-05-19T04:10:26;98708.06;;;11.56;100.00
56182;BME280;51963;46.052;14.544;2023-05-19T04:12:53;98705.44;;;11.56;100.00
56182;BME280;51963;46.052;14.544;2023-05-19T04:15:19;98704.16;;;11.52;100.00
56182;BME280;51963;46.052;14.544;2023-05-19T04:17:44;98711.53;;;11.57;100.00
56182;BME280;51963;46.052;14.544;2023-05-19T04:20:13;98705.16;;;11.51;100.00
56182;BME280;51963;46.052;14.544;2023-05-19T04:22:41;98704.22;;;11.59;100.00
56182;BME280;51963;46.052;14.544;2023-05-19T04:25:09;98703.84;;;11.62;100.00
56182;BME280;51963;46.052;14.544;2023-05-19T04:27:36;98707.50;;;11.61;100.00
56182;BME280;51963;46.052;14.544;2023-05-19T04:30:05;98700.31;;;11.55;100.00
56182;BME280;51963;46.052;14.544;2023-05-19T04:32:31;98698.75;;;11.61;100.00
56182;BME280;51963;46.052;14.544;2023-05-19T04:34:57;98707.97;;;11.65;100.00
56182;BME280;51963;46.052;14.544;2023-05-19T04:37:25;98710.13;;;11.76;100.00
56182;BME280;51963;46.052;14.544;2023-05-19T04:39:51;98715.16;;;11.71;100.00
56182;BME280;51963;46.052;14.544;2023-05-19T04:42:18;98712.22;;;11.81;100.00
56182;BME280;51963;46.052;14.544;2023-05-19T04:44:45;98704.47;;;11.79;100.00
56182;BME280;51963;46.052;14.544;2023-05-19T04:47:10;98710.28;;;11.89;100.00
56182;BME280;51963;46.052;14.544;2023-05-19T04:49:36;98707.88;;;11.95;100.00
56182;BME280;51963;46.052;14.544;2023-05-19T04:52:06;98712.25;;;12.02;100.00
56182;BME280;51963;46.052;14.544;2023-05-19T04:54:38;98707.66;;;12.11;100.00
56182;BME280;51963;46.052;14.544;2023-05-19T04:57:05;98717.38;;;12.04;100.00
56182;BME280;51963;46.052;14.544;2023-05-19T04:59:35;98720.78;;;12.20;100.00
56182;BME280;51963;46.052;14.544;2023-05-19T05:02:01;98707.97;;;12.23;100.00
56182;BME280;51963;46.052;14.544;2023-05-19T05:04:29;98717.69;;;12.16;100.00
56182;BME280;51963;46.052;14.544;2023-05-19T05:06:55;98715.88;;;12.16;100.00
56182;BME280;51963;46.052;14.544;2023-05-19T05:09:22;98708.19;;;12.22;100.00
56182;BME280;51963;46.052;14.544;2023-05-19T05:11:49;98713.47;;;12.22;100.00
56182;BME280;51963;46.052;14.544;2023-05-19T05:14:17;98711.19;;;12.40;100.00
56182;BME280;51963;46.052;14.544;2023-05-19T05:16:43;98709.22;;;12.49;100.00
56182;BME280;51963;46.052;14.544;2023-05-19T05:19:13;98715.88;;;12.38;100.00
56182;BME280;51963;46.052;14.544;2023-05-19T05:21:40;98684.81;;;12.10;100.00
56182;BME280;51963;46.052;14.544;2023-05-19T05:24:07;98721.69;;;12.27;100.00
56182;BME280;51963;46.052;14.544;2023-05-19T05:26:34;98730.25;;;12.29;100.00
56182;BME280;51963;46.052;14.544;2023-05-19T05:29:01;98726.66;;;12.37;100.00
56182;BME280;51963;46.052;14.544;2023-05-19T05:31:28;98727.28;;;12.39;100.00
56182;BME280;51963;46.052;14.544;2023-05-19T05:33:54;98731.13;;;12.36;100.00
56182;BME280;51963;46.052;14.544;2023-05-19T05:36:24;98733.94;;;12.28;100.00
56182;BME280;51963;46.052;14.544;2023-05-19T05:38:50;98740.03;;;12.28;100.00
56182;BME280;51963;46.052;14.544;2023-05-19T05:41:19;98731.78;;;12.38;100.00
56182;BME280;51963;46.052;14.544;2023-05-19T05:43:48;98715.16;;;12.29;100.00
56182;BME280;51963;46.052;14.544;2023-05-19T05:46:14;98737.50;;;12.42;100.00
56182;BME280;51963;46.052;14.544;2023-05-19T05:48:40;98737.31;;;12.43;100.00
56182;BME280;51963;46.052;14.544;2023-05-19T05:51:08;98729.75;;;12.40;100.00
56182;BME280;51963;46.052;14.544;2023-05-19T05:53:39;98743.94;;;12.54;100.00
56182;BME280;51963;46.052;14.544;2023-05-19T05:56:08;98745.06;;;12.45;100.00
56182;BME280;51963;46.052;14.544;2023-05-19T05:58:42;98739.72;;;12.38;100.00
56182;BME280;51963;46.052;14.544;2023-05-19T06:01:09;98747.06;;;12.36;100.00
56182;BME280;51963;46.052;14.544;2023-05-19T06:03:38;98750.97;;;12.40;100.00
56182;BME280;51963;46.052;14.544;2023-05-19T06:06:07;98749.31;;;12.39;100.00
56182;BME280;51963;46.052;14.544;2023-05-19T06:08:35;98754.00;;;12.37;100.00
56182;BME280;51963;46.052;14.544;2023-05-19T06:11:02;98746.66;;;12.39;100.00
56182;BME280;51963;46.052;14.544;2023-05-19T06:13:35;98750.38;;;12.45;100.00
56182;BME280;51963;46.052;14.544;2023-05-19T06:16:04;98758.16;;;12.46;100.00
56182;BME280;51963;46.052;14.544;2023-05-19T06:18:37;98756.31;;;12.47;100.00
56182;BME280;51963;46.052;14.544;2023-05-19T06:21:03;98738.72;;;12.39;100.00
56182;BME280;51963;46.052;14.544;2023-05-19T06:23:29;98757.41;;;12.53;100.00
56182;BME280;51963;46.052;14.544;2023-05-19T06:25:55;98757.00;;;12.56;100.00
56182;BME280;51963;46.052;14.544;2023-05-19T06:28:22;98762.31;;;12.56;100.00
56182;BME280;51963;46.052;14.544;2023-05-19T06:30:49;98766.03;;;12.61;100.00
56182;BME280;51963;46.052;14.544;2023-05-19T06:33:30;98774.69;;;12.70;100.00
56182;BME280;51963;46.052;14.544;2023-05-19T06:35:56;98765.59;;;12.58;100.00
56182;BME280;51963;46.052;14.544;2023-05-19T06:38:22;98768.78;;;12.75;100.00
56182;BME280;51963;46.052;14.544;2023-05-19T06:40:54;98780.22;;;12.75;100.00
56182;BME280;51963;46.052;14.544;2023-05-19T06:43:22;98776.72;;;12.68;100.00
56182;BME280;51963;46.052;14.544;2023-05-19T06:45:52;98772.75;;;12.86;100.00
56182;BME280;51963;46.052;14.544;2023-05-19T06:48:18;98781.63;;;12.71;100.00
56182;BME280;51963;46.052;14.544;2023-05-19T06:50:44;98770.94;;;12.65;100.00
56182;BME280;51963;46.052;14.544;2023-05-19T06:53:11;98770.38;;;12.69;100.00
56182;BME280;51963;46.052;14.544;2023-05-19T06:55:37;98771.03;;;12.71;100.00
56182;BME280;51963;46.052;14.544;2023-05-19T06:58:03;98768.13;;;12.66;100.00
56182;BME280;51963;46.052;14.544;2023-05-19T07:00:29;98776.03;;;12.88;100.00
56182;BME280;51963;46.052;14.544;2023-05-19T07:02:56;98780.59;;;12.94;100.00
56182;BME280;51963;46.052;14.544;2023-05-19T07:05:23;98773.63;;;12.93;100.00
56182;BME280;51963;46.052;14.544;2023-05-19T07:07:53;98780.13;;;12.90;100.00
56182;BME280;51963;46.052;14.544;2023-05-19T07:10:23;98776.91;;;12.95;100.00
56182;BME280;51963;46.052;14.544;2023-05-19T07:12:49;98778.25;;;13.13;100.00
56182;BME280;51963;46.052;14.544;2023-05-19T07:15:17;98767.19;;;13.09;100.00
56182;BME280;51963;46.052;14.544;2023-05-19T07:17:43;98759.56;;;13.28;100.00
56182;BME280;51963;46.052;14.544;2023-05-19T07:20:09;98765.78;;;13.42;100.00
56182;BME280;51963;46.052;14.544;2023-05-19T07:22:40;98776.41;;;13.42;100.00
56182;BME280;51963;46.052;14.544;2023-05-19T07:25:07;98772.69;;;13.71;100.00
56182;BME280;51963;46.052;14.544;2023-05-19T07:27:33;98774.78;;;13.83;100.00
56182;BME280;51963;46.052;14.544;2023-05-19T07:30:03;98764.41;;;14.01;100.00
56182;BME280;51963;46.052;14.544;2023-05-19T07:32:31;98760.94;;;14.07;100.00
56182;BME280;51963;46.052;14.544;2023-05-19T07:34:56;98765.28;;;14.29;100.00
56182;BME280;51963;46.052;14.544;2023-05-19T07:37:22;98762.47;;;14.57;100.00
56182;BME280;51963;46.052;14.544;2023-05-19T07:39:48;98745.88;;;14.55;100.00
56182;BME280;51963;46.052;14.544;2023-05-19T07:42:13;98730.91;;;14.61;100.00
56182;BME280;51963;46.052;14.544;2023-05-19T07:44:39;98741.16;;;14.57;100.00
56182;BME280;51963;46.052;14.544;2023-05-19T07:47:07;98751.81;;;14.91;100.00
56182;BME280;51963;46.052;14.544;2023-05-19T07:49:32;98748.47;;;15.29;99.79
56182;BME280;51963;46.052;14.544;2023-05-19T07:51:58;98743.63;;;14.99;100.00
56182;BME280;51963;46.052;14.544;2023-05-19T07:54:24;98750.53;;;15.34;96.78
56182;BME280;51963;46.052;14.544;2023-05-19T07:56:49;98737.88;;;15.02;97.10
56182;BME280;51963;46.052;14.544;2023-05-19T07:59:15;98753.63;;;15.10;98.52
56182;BME280;51963;46.052;14.544;2023-05-19T08:01:41;98752.88;;;14.83;97.17
56182;BME280;51963;46.052;14.544;2023-05-19T08:04:07;98754.69;;;14.96;100.00
56182;BME280;51963;46.052;14.544;2023-05-19T08:06:32;98754.50;;;14.77;97.95
56182;BME280;51963;46.052;14.544;2023-05-19T08:08:59;98742.19;;;14.63;99.19
56182;BME280;51963;46.052;14.544;2023-05-19T08:11:25;98750.59;;;14.87;100.00
56182;BME280;51963;46.052;14.544;2023-05-19T08:13:51;98751.41;;;14.94;99.30
56182;BME280;51963;46.052;14.544;2023-05-19T08:16:19;98743.44;;;14.80;98.43
56182;BME280;51963;46.052;14.544;2023-05-19T08:18:48;98735.84;;;14.50;99.79
56182;BME280;51963;46.052;14.544;2023-05-19T08:21:14;98750.97;;;14.57;100.00
56182;BME280;51963;46.052;14.544;2023-05-19T08:23:39;98744.44;;;14.52;100.00
56182;BME280;51963;46.052;14.544;2023-05-19T08:26:05;98751.59;;;14.38;100.00
56182;BME280;51963;46.052;14.544;2023-05-19T08:28:33;98752.81;;;14.36;100.00
56182;BME280;51963;46.052;14.544;2023-05-19T08:30:59;98753.84;;;14.48;100.00
56182;BME280;51963;46.052;14.544;2023-05-19T08:33:25;98754.06;;;14.47;100.00
56182;BME280;51963;46.052;14.544;2023-05-19T08:35:51;98749.94;;;14.44;100.00
56182;BME280;51963;46.052;14.544;2023-05-19T08:38:16;98749.94;;;14.44;100.00
56182;BME280;51963;46.052;14.544;2023-05-19T08:40:45;98742.00;;;14.78;100.00
56182;BME280;51963;46.052;14.544;2023-05-19T08:43:11;98733.97;;;15.18;97.95
56182;BME280;51963;46.052;14.544;2023-05-19T08:45:42;98754.94;;;15.60;94.55
56182;BME280;51963;46.052;14.544;2023-05-19T08:48:11;98746.81;;;16.33;91.10
56182;BME280;51963;46.052;14.544;2023-05-19T08:50:39;98723.06;;;16.24;90.42
56182;BME280;51963;46.052;14.544;2023-05-19T08:53:19;98726.94;;;16.54;89.03
56182;BME280;51963;46.052;14.544;2023-05-19T08:58:20;98743.41;;;16.76;89.58
56182;BME280;51963;46.052;14.544;2023-05-19T09:00:47;98748.09;;;17.25;87.07
56182;BME280;51963;46.052;14.544;2023-05-19T09:03:14;98742.31;;;17.28;86.32
56182;BME280;51963;46.052;14.544;2023-05-19T09:05:41;98728.56;;;16.80;84.37
56182;BME280;51963;46.052;14.544;2023-05-19T09:08:10;98745.47;;;16.74;86.46
56182;BME280;51963;46.052;14.544;2023-05-19T09:10:35;98746.09;;;16.95;85.88
56182;BME280;51963;46.052;14.544;2023-05-19T09:13:01;98728.22;;;16.95;83.48
56182;BME280;51963;46.052;14.544;2023-05-19T09:15:26;98749.28;;;17.10;85.12
56182;BME280;51963;46.052;14.544;2023-05-19T09:18:05;98754.06;;;17.01;86.95
56182;BME280;51963;46.052;14.544;2023-05-19T09:20:31;98741.75;;;17.00;84.70
56182;BME280;51963;46.052;14.544;2023-05-19T09:23:00;98750.66;;;16.69;87.21
56182;BME280;51963;46.052;14.544;2023-05-19T09:25:26;98752.75;;;16.35;90.01
56182;BME280;51963;46.052;14.544;2023-05-19T09:27:53;98753.91;;;16.13;92.25
56182;BME280;51963;46.052;14.544;2023-05-19T09:30:19;98745.63;;;16.22;89.20
56182;BME280;51963;46.052;14.544;2023-05-19T09:32:46;98747.22;;;15.97;91.09
56182;BME280;51963;46.052;14.544;2023-05-19T09:35:12;98735.53;;;15.98;91.00
56182;BME280;51963;46.052;14.544;2023-05-19T09:37:39;98737.78;;;16.02;89.65
56182;BME280;51963;46.052;14.544;2023-05-19T09:40:09;98740.63;;;16.07;90.60
56182;BME280;51963;46.052;14.544;2023-05-19T09:42:39;98724.88;;;15.98;89.91
56182;BME280;51963;46.052;14.544;2023-05-19T09:45:06;98731.50;;;16.21;88.62
56182;BME280;51963;46.052;14.544;2023-05-19T09:47:34;98744.38;;;16.56;86.88
56182;BME280;51963;46.052;14.544;2023-05-19T09:50:03;98734.00;;;17.18;83.93
56182;BME280;51963;46.052;14.544;2023-05-19T09:52:29;98730.94;;;17.14;83.85
56182;BME280;51963;46.052;14.544;2023-05-19T09:54:56;98721.50;;;17.49;82.12
56182;BME280;51963;46.052;14.544;2023-05-19T09:57:25;98719.34;;;18.07;79.27
56182;BME280;51963;46.052;14.544;2023-05-19T09:59:54;98718.75;;;18.59;75.67
56182;BME280;51963;46.052;14.544;2023-05-19T10:02:21;98712.50;;;19.13;75.46
56182;BME280;51963;46.052;14.544;2023-05-19T10:04:51;98709.53;;;20.25;67.67
56182;BME280;51963;46.052;14.544;2023-05-19T10:07:18;98710.28;;;19.50;71.48
56182;BME280;51963;46.052;14.544;2023-05-19T10:09:44;98699.88;;;19.25;74.55
56182;BME280;51963;46.052;14.544;2023-05-19T10:12:11;98710.75;;;19.07;74.58
56182;BME280;51963;46.052;14.544;2023-05-19T10:14:37;98707.59;;;19.10;75.14
56182;BME280;51963;46.052;14.544;2023-05-19T10:17:05;98687.88;;;18.44;74.79
56182;BME280;51963;46.052;14.544;2023-05-19T10:19:32;98719.53;;;18.36;74.87
56182;BME280;51963;46.052;14.544;2023-05-19T10:21:58;98721.81;;;18.20;75.97
56182;BME280;51963;46.052;14.544;2023-05-19T10:24:24;98722.47;;;18.03;76.60
56182;BME280;51963;46.052;14.544;2023-05-19T10:27:01;98723.16;;;17.50;80.38
56182;BME280;51963;46.052;14.544;2023-05-19T10:29:33;98718.16;;;17.53;80.92
56182;BME280;51963;46.052;14.544;2023-05-19T10:32:09;98711.81;;;17.97;80.70
56182;BME280;51963;46.052;14.544;2023-05-19T10:37:30;98704.66;;;19.23;70.91
56182;BME280;51963;46.052;14.544;2023-05-19T10:39:59;98685.19;;;20.83;66.23
56182;BME280;51963;46.052;14.544;2023-05-19T10:42:39;98695.88;;;22.17;62.41
56182;BME280;51963;46.052;14.544;2023-05-19T10:45:12;98715.84;;;22.21;58.93
56182;BME280;51963;46.052;14.544;2023-05-19T10:47:43;98706.81;;;21.55;59.99
56182;BME280;51963;46.052;14.544;2023-05-19T10:50:10;98711.72;;;20.62;62.70
56182;BME280;51963;46.052;14.544;2023-05-19T10:52:37;98691.72;;;20.70;62.84
56182;BME280;51963;46.052;14.544;2023-05-19T10:55:06;98708.16;;;20.40;63.42
56182;BME280;51963;46.052;14.544;2023-05-19T10:57:33;98704.31;;;20.18;64.17
56182;BME280;51963;46.052;14.544;2023-05-19T11:02:50;98700.47;;;20.65;63.33
56182;BME280;51963;46.052;14.544;2023-05-19T11:05:28;98682.22;;;21.68;60.20
56182;BME280;51963;46.052;14.544;2023-05-19T11:07:57;98698.25;;;24.16;53.62
56182;BME280;51963;46.052;14.544;2023-05-19T11:10:29;98691.94;;;23.74;51.80
56182;BME280;51963;46.052;14.544;2023-05-19T11:12:56;98698.44;;;23.94;51.23
56182;BME280;51963;46.052;14.544;2023-05-19T11:15:25;98695.25;;;24.02;50.38
56182;BME280;51963;46.052;14.544;2023-05-19T11:17:52;98687.38;;;23.11;51.62
56182;BME280;51963;46.052;14.544;2023-05-19T11:20:28;98685.84;;;22.39;55.49
56182;BME280;51963;46.052;14.544;2023-05-19T11:23:13;98683.28;;;21.67;56.81
56182;BME280;51963;46.052;14.544;2023-05-19T11:25:50;98689.91;;;20.93;60.42
56182;BME280;51963;46.052;14.544;2023-05-19T11:28:25;98680.16;;;20.18;62.08
56182;BME280;51963;46.052;14.544;2023-05-19T11:30:57;98678.50;;;19.42;65.84
56182;BME280;51963;46.052;14.544;2023-05-19T11:33:24;98679.03;;;19.15;68.36
56182;BME280;51963;46.052;14.544;2023-05-19T11:35:56;98626.44;;;18.38;70.46
56182;BME280;51963;46.052;14.544;2023-05-19T11:38:26;98669.97;;;18.69;70.18
56182;BME280;51963;46.052;14.544;2023-05-19T11:40:53;98660.56;;;18.66;71.57
56182;BME280;51963;46.052;14.544;2023-05-19T11:43:22;98642.00;;;18.17;72.35
56182;BME280;51963;46.052;14.544;2023-05-19T11:45:48;98647.63;;;18.51;70.96
56182;BME280;51963;46.052;14.544;2023-05-19T11:48:14;98660.88;;;18.22;72.84
56182;BME280;51963;46.052;14.544;2023-05-19T11:50:40;98657.03;;;18.18;71.89
56182;BME280;51963;46.052;14.544;2023-05-19T11:53:06;98659.19;;;18.09;75.43
56182;BME280;51963;46.052;14.544;2023-05-19T11:55:32;98661.53;;;18.06;74.08
56182;BME280;51963;46.052;14.544;2023-05-19T11:57:59;98652.47;;;18.07;72.65
56182;BME280;51963;46.052;14.544;2023-05-19T12:00:25;98647.94;;;18.19;73.72
56182;BME280;51963;46.052;14.544;2023-05-19T12:02:52;98658.63;;;17.77;77.52
56182;BME280;51963;46.052;14.544;2023-05-19T12:05:23;98659.91;;;17.43;78.68
56182;BME280;51963;46.052;14.544;2023-05-19T12:07:51;98661.38;;;17.39;78.41
56182;BME280;51963;46.052;14.544;2023-05-19T12:10:27;98655.63;;;17.24;79.71
56182;BME280;51963;46.052;14.544;2023-05-19T12:12:53;98647.75;;;17.29;80.41
56182;BME280;51963;46.052;14.544;2023-05-19T12:15:23;98635.88;;;17.25;80.62
56182;BME280;51963;46.052;14.544;2023-05-19T12:18:00;98638.47;;;17.13;79.89
56182;BME280;51963;46.052;14.544;2023-05-19T12:20:32;98634.41;;;17.10;82.47
56182;BME280;51963;46.052;14.544;2023-05-19T12:23:00;98637.38;;;17.02;79.91
56182;BME280;51963;46.052;14.544;2023-05-19T12:25:27;98634.53;;;16.78;80.51
56182;BME280;51963;46.052;14.544;2023-05-19T12:28:00;98644.63;;;16.95;81.75
56182;BME280;51963;46.052;14.544;2023-05-19T12:30:30;98639.06;;;17.15;81.64
56182;BME280;51963;46.052;14.544;2023-05-19T12:32:56;98640.25;;;17.00;81.62
56182;BME280;51963;46.052;14.544;2023-05-19T12:35:26;98637.72;;;16.87;79.96
56182;BME280;51963;46.052;14.544;2023-05-19T12:37:52;98633.50;;;16.79;79.69
56182;BME280;51963;46.052;14.544;2023-05-19T12:40:19;98635.78;;;16.94;79.57
56182;BME280;51963;46.052;14.544;2023-05-19T12:42:48;98617.81;;;16.83;79.48
56182;BME280;51963;46.052;14.544;2023-05-19T12:45:19;98630.97;;;16.84;79.27
56182;BME280;51963;46.052;14.544;2023-05-19T12:47:47;98634.97;;;16.94;79.72
56182;BME280;51963;46.052;14.544;2023-05-19T12:50:13;98601.66;;;16.59;81.89
56182;BME280;51963;46.052;14.544;2023-05-19T12:52:44;98609.31;;;16.74;81.11
56182;BME280;51963;46.052;14.544;2023-05-19T12:55:10;98617.53;;;16.72;82.33
56182;BME280;51963;46.052;14.544;2023-05-19T12:57:38;98588.53;;;16.39;83.05
56182;BME280;51963;46.052;14.544;2023-05-19T13:02:54;98593.25;;;16.37;82.79
56182;BME280;51963;46.052;14.544;2023-05-19T13:05:20;98605.13;;;16.41;82.99
56182;BME280;51963;46.052;14.544;2023-05-19T13:08:00;98605.41;;;16.33;82.55
56182;BME280;51963;46.052;14.544;2023-05-19T13:10:27;98624.19;;;16.19;85.81
56182;BME280;51963;46.052;14.544;2023-05-19T13:13:00;98619.84;;;16.00;85.35